• Join FlightAware (Why Join?)
  • Login
  • US Flag 
04:29PM EDT


 

Airport Tracker/Info


-or-


 

Live Flight TrackerFlight Track Log ✈ GJS6221 ✈ 12-Aug-2013 ✈ CYUL - KLGA

Flight Track Log - Related Links

Times and Time Zones

All times are in EDT time to prevent confusion due to time zone crossing. See the GJS6221 flight status page for this flight to view local times or setup timezone preferences in your user account.

Time Position Orientation Groundspeed Altitude Reporting Facility
EDT Latitude Longitude Course Direction KTS MPH feet Rate Location/Type
07:30AM 45.4497 -73.7475 189° South 461 531 1,400  Level Boston Center
07:31AM 45.3833 -73.8000 209° Southwest 200 230 4,200 2,040 Climbing Montreal Center
07:32AM 45.3167 -73.8167 190° South 250 288 5,900 2,400 Climbing Montreal Center
07:33AM 45.2500 -73.8667 208° Southwest 270 311 9,100 2,700 Climbing Montreal Center
07:34AM 44.9240 -74.0855 189° South  Level FlightAware Approximate
07:34AM 45.1667 -73.9000 196° South 280 322 11,400  Level Montreal Center
07:35AM 44.8246 -74.1085 189° South  Level FlightAware Approximate
07:35AM 45.0833 -73.8833 172° South 340 391 12,800  Level Montreal Center
07:36AM 44.9833 -73.8833 180° South 360 414 14,900 2,100 Climbing Montreal Center
07:37AM 44.8667 -73.8833 180° South 380 437 17,000 1,980 Climbing Montreal Center
07:38AM 44.8064 -73.8883 183° South 384 442 18,400 1,500 Climbing Boston Center
07:39AM 44.6981 -73.8856 179° South 384 442 19,700 1,320 Climbing Boston Center
07:40AM 44.5814 -73.8800 178° South 407 468 21,100 1,260 Climbing Boston Center
07:41AM 44.4836 -73.8744 178° South 426 490 22,300 1,320 Climbing Boston Center
07:42AM 44.3525 -73.8686 178° South 426 490 23,800 1,380 Climbing Boston Center
07:43AM 44.2067 -73.8650 179° South 437 503 25,400 1,380 Climbing Boston Center
07:44AM 44.0817 -73.8592 178° South 442 509 26,900 1,320 Climbing Boston Center
07:45AM 43.9608 -73.8533 178° South 442 509 28,200 1,140 Climbing Boston Center
07:46AM 43.8256 -73.8472 178° South 442 509 29,300 360 Climbing Boston Center
07:47AM 43.7006 -73.8414 178° South 442 509 29,000 -900 Descending Boston Center
07:48AM 43.5881 -73.8417 180° South 442 509 27,600 -1,500 Descending Boston Center
07:49AM 43.4672 -73.8361 178° South 442 509 26,000 -1,740 Descending Boston Center
07:50AM 43.3339 -73.8272 177° South 442 509 24,100 -1,020 Descending Boston Center
07:51AM 43.2172 -73.8247 179° South 432 497 24,000 -840 Descending Boston Center
07:52AM 43.0986 -73.8192 178° South 432 497 22,500 -1,380 Descending Boston Center
07:53AM 42.9839 -73.8167 179° South 422 486 21,300 -1,260 Descending Boston Center
07:54AM 42.8736 -73.8114 178° South 417 480 20,000 -660 Descending Boston Center
07:55AM 42.7633 -73.8033 177° South 405 466 20,000  Level Boston Center
07:56AM 42.6467 -73.7836 173° South 405 466 20,000  Level Boston Center
07:57AM 42.5469 -73.7647 172° South 405 466 20,000  Level Boston Center
07:58AM 42.4347 -73.7425 172° South 410 472 20,000 -660 Level Boston Center
07:59AM 42.3222 -73.7289 175° South 405 466 18,700 -1,020 Descending Boston Center
08:00AM 42.2033 -73.7433 185° South 399 459 18,000 -360 Descending Boston Center
08:01AM 42.1031 -73.7608 187° South 407 468 18,000  Level Boston Center
08:02AM 41.9800 -73.7750 185° South 407 468 18,000 -300 Level Boston Center
08:03AM 41.8797 -73.7925 187° South 407 468 17,400 -960 Descending Boston Center
08:04AM 41.7586 -73.8094 186° South 407 468 16,100 -1,620 Descending Boston Center
08:05AM 41.6625 -73.8267 188° South 399 459 14,200 -1,920 Descending Boston Center
08:06AM 41.5000 -73.8667 190° South 367 422 11,400 -1,560 Descending New York TRACON
08:07AM 41.4000 -73.8500 173° South 341 392 10,300 -1,200 Descending New York TRACON
08:08AM 41.3333 -73.7833 143° Southeast 309 356 9,000 -1,500 Descending New York TRACON
08:09AM 41.2500 -73.7167 149° Southeast 304 350 7,300 -1,560 Descending New York TRACON
08:10AM 41.2000 -73.6667 143° Southeast 283 326 5,900 -1,560 Descending New York TRACON
08:11AM 41.1167 -73.6333 163° South 270 311 4,100 -960 Descending New York TRACON
08:12AM 41.0500 -73.6500 191° South 267 307 4,000 -60 Descending New York TRACON
08:13AM 40.9833 -73.7000 210° Southwest 265 305 4,000 -60 Level New York TRACON
08:14AM 40.9333 -73.7500 217° Southwest 267 307 3,900 -1,200 Descending New York TRACON
08:15AM 40.8667 -73.8000 210° Southwest 251 289 1,700 -1,500 Descending New York TRACON
08:16AM 40.8167 -73.8333 207° Southwest 194 223 900 -900 Descending New York TRACON
08:18AM 40.7667 -73.8667 180° South  Level FlightAware Approximate
08:25AM 40.7772 -73.8726 180° South  Level Estimated
08:26AM 40.7772 -73.8726 180° South  Level Estimated